METAR Data
IDs: Format: Raw Decoded Include TAF

Data at: 0747 UTC 18 Sep 2021

SASA 180700Z 23002KT CAVOK 11/05 Q1016